createdAt,value
2019-05-13T00:01:18.084Z,102290.40
2019-05-13T00:04:08.951Z,102286.05
2019-05-13T00:06:58.745Z,102290.66
2019-05-13T00:09:49.005Z,102292.23
2019-05-13T00:12:38.868Z,102291.94
2019-05-13T00:15:28.983Z,102288.63
2019-05-13T00:18:18.887Z,102288.03
2019-05-13T00:21:08.726Z,102295.15
2019-05-13T00:23:58.863Z,102299.25
2019-05-13T00:26:48.750Z,102297.59
2019-05-13T00:29:38.802Z,102304.41
2019-05-13T00:32:28.674Z,102307.16
2019-05-13T00:35:19.213Z,102312.39
2019-05-13T00:38:09.157Z,102307.87
2019-05-13T00:40:59.320Z,102314.14
2019-05-13T00:43:49.608Z,102310.31
2019-05-13T00:46:39.374Z,102312.52
2019-05-13T00:49:29.291Z,102321.01
2019-05-13T00:52:19.452Z,102321.20
2019-05-13T00:55:10.281Z,102322.59
2019-05-13T00:58:00.122Z,102318.08
2019-05-13T01:00:49.721Z,102325.72
2019-05-13T01:03:40.022Z,102326.09
2019-05-13T01:06:29.700Z,102321.73
2019-05-13T01:09:18.757Z,102321.25
2019-05-13T01:12:09.003Z,102326.00
2019-05-13T01:14:58.662Z,102319.77
2019-05-13T01:17:49.070Z,102326.22
2019-05-13T01:20:39.320Z,102329.26
2019-05-13T01:23:29.687Z,102326.40
2019-05-13T01:26:19.739Z,102332.33
2019-05-13T01:29:09.991Z,102335.05
2019-05-13T01:32:00.170Z,102333.39
2019-05-13T01:34:49.724Z,102329.17
2019-05-13T01:37:42.746Z,102334.28
2019-05-13T01:40:30.946Z,102334.46
2019-05-13T01:43:20.718Z,102335.15
2019-05-13T01:46:10.341Z,102334.82
2019-05-13T01:49:00.387Z,102337.01
2019-05-13T01:51:50.537Z,102340.58
2019-05-13T01:54:40.290Z,102344.98
2019-05-13T01:57:30.018Z,102346.83
2019-05-13T02:00:20.577Z,102343.30
2019-05-13T02:03:10.662Z,102352.27
2019-05-13T02:06:00.322Z,102353.77
2019-05-13T02:08:50.294Z,102350.92
2019-05-13T02:11:40.208Z,102349.91
2019-05-13T02:14:30.170Z,102354.99
2019-05-13T02:17:19.952Z,102357.84
2019-05-13T02:20:10.368Z,102360.38
2019-05-13T02:23:00.091Z,102368.99
2019-05-13T02:25:49.881Z,102368.33
2019-05-13T02:28:39.813Z,102360.56
2019-05-13T02:31:41.338Z,102362.21
2019-05-13T02:34:23.296Z,102365.92
2019-05-13T02:37:13.590Z,102368.97
2019-05-13T02:40:04.201Z,102370.66
2019-05-13T02:42:54.132Z,102373.36
2019-05-13T02:45:45.230Z,102373.69
2019-05-13T02:48:34.763Z,102374.37
2019-05-13T02:51:24.854Z,102372.35
2019-05-13T02:54:14.465Z,102380.41
2019-05-13T02:57:04.759Z,102370.98
2019-05-13T02:59:54.499Z,102375.03
2019-05-13T03:02:44.822Z,102387.34
2019-05-13T03:05:34.401Z,102386.81
2019-05-13T03:08:39.773Z,102388.66
2019-05-13T03:11:16.904Z,102389.66
2019-05-13T03:14:06.931Z,102386.46
2019-05-13T03:17:03.558Z,102393.88
2019-05-13T03:19:53.734Z,102386.29
2019-05-13T03:22:43.706Z,102395.19
2019-05-13T03:25:33.989Z,102396.04
2019-05-13T03:28:23.992Z,102398.20
2019-05-13T03:31:16.910Z,102394.02
2019-05-13T03:34:07.109Z,102395.68
2019-05-13T03:36:58.263Z,102394.47
2019-05-13T03:39:52.288Z,102397.70
2019-05-13T03:42:45.524Z,102400.70
2019-05-13T03:45:38.144Z,102403.90
2019-05-13T03:48:33.270Z,102407.61
2019-05-13T03:51:23.186Z,102408.61
2019-05-13T03:54:14.809Z,102409.42
2019-05-13T03:57:05.587Z,102415.16
2019-05-13T03:59:55.700Z,102418.35
2019-05-13T04:02:45.697Z,102421.40
2019-05-13T04:05:36.039Z,102411.62
2019-05-13T04:08:26.928Z,102425.44
2019-05-13T04:11:17.418Z,102424.09
2019-05-13T04:14:07.637Z,102423.92
2019-05-13T04:16:58.011Z,102425.12
2019-05-13T04:19:48.096Z,102433.52
2019-05-13T04:22:38.507Z,102434.70
2019-05-13T04:25:28.566Z,102436.23
2019-05-13T04:28:22.014Z,102433.05
2019-05-13T04:31:14.238Z,102438.62
2019-05-13T04:34:03.435Z,102435.95
2019-05-13T04:36:54.742Z,102437.13
2019-05-13T04:39:51.679Z,102444.72
2019-05-13T04:42:36.976Z,102450.29
2019-05-13T04:45:26.881Z,102448.59
2019-05-13T04:48:18.568Z,102452.84
2019-05-13T04:51:08.584Z,102456.39
2019-05-13T04:53:58.697Z,102448.98
2019-05-13T04:56:52.238Z,102462.99
2019-05-13T04:59:44.459Z,102462.32
2019-05-13T05:03:13.661Z,102463.69
2019-05-13T05:06:48.225Z,102468.09
2019-05-13T05:10:30.349Z,102471.45
2019-05-13T05:13:48.211Z,102476.38
2019-05-13T05:17:05.537Z,102483.63
2019-05-13T05:20:28.736Z,102481.63
2019-05-13T05:23:57.837Z,102475.88
2019-05-13T05:27:48.737Z,102475.20
2019-05-13T05:31:41.781Z,102480.25
2019-05-13T05:35:43.945Z,102471.59
2019-05-13T05:39:06.258Z,102479.36
2019-05-13T05:41:58.166Z,102480.15
2019-05-13T05:44:52.043Z,102480.80
2019-05-13T05:47:45.616Z,102482.27
2019-05-13T05:50:36.966Z,102486.95
2019-05-13T05:53:31.892Z,102487.22
2019-05-13T05:56:25.173Z,102490.68
2019-05-13T05:59:15.167Z,102495.37
2019-05-13T06:02:06.001Z,102494.22
2019-05-13T06:04:57.650Z,102491.13
2019-05-13T06:07:47.983Z,102500.48
2019-05-13T06:10:49.081Z,102497.19
2019-05-13T06:13:31.493Z,102498.72
2019-05-13T06:16:21.813Z,102497.61
2019-05-13T06:19:12.285Z,102493.30
2019-05-13T06:22:02.782Z,102498.09
2019-05-13T06:24:52.868Z,102486.70
2019-05-13T06:27:43.070Z,102495.72
2019-05-13T06:30:32.956Z,102492.57
2019-05-13T06:33:23.236Z,102497.72
2019-05-13T06:36:13.528Z,102499.59
2019-05-13T06:39:05.530Z,102503.25
2019-05-13T06:41:55.106Z,102508.45
2019-05-13T06:44:45.171Z,102505.96
2019-05-13T06:47:36.794Z,102503.53
2019-05-13T06:50:27.026Z,102502.33
2019-05-13T06:53:16.653Z,102509.12
2019-05-13T06:56:06.275Z,102518.89
2019-05-13T06:58:57.059Z,102513.67
2019-05-13T07:01:46.924Z,102513.05
2019-05-13T07:04:37.115Z,102519.44
2019-05-13T07:07:26.929Z,102503.55
2019-05-13T07:10:17.016Z,102504.05
2019-05-13T07:13:06.721Z,102503.30
2019-05-13T07:15:57.039Z,102502.59
2019-05-13T07:18:47.086Z,102507.47
2019-05-13T07:21:36.380Z,102505.19
2019-05-13T07:24:26.546Z,102500.66
2019-05-13T07:27:16.415Z,102501.36
2019-05-13T07:30:06.606Z,102501.80
2019-05-13T07:32:56.863Z,102494.08
2019-05-13T07:35:46.709Z,102505.03
2019-05-13T07:38:36.684Z,102494.09
2019-05-13T07:41:38.215Z,102494.71
2019-05-13T07:44:18.563Z,102494.28
2019-05-13T07:47:08.393Z,102496.34
2019-05-13T07:49:58.314Z,102495.16
2019-05-13T07:52:47.792Z,102501.31
2019-05-13T07:55:37.766Z,102492.42
2019-05-13T07:58:28.025Z,102487.78
2019-05-13T08:01:17.876Z,102489.34
2019-05-13T08:04:19.180Z,102491.67
2019-05-13T08:07:02.022Z,102489.21
2019-05-13T08:09:52.506Z,102488.52
2019-05-13T08:12:42.743Z,102485.91
2019-05-13T08:15:33.042Z,102490.53
2019-05-13T08:18:22.956Z,102493.74
2019-05-13T08:21:12.909Z,102491.94
2019-05-13T08:24:03.089Z,102491.63
2019-05-13T08:26:53.254Z,102497.60
2019-05-13T08:29:43.785Z,102496.69
2019-05-13T08:32:34.173Z,102495.62
2019-05-13T08:35:24.077Z,102498.56
2019-05-13T08:38:13.661Z,102495.61
2019-05-13T08:41:03.744Z,102494.37
2019-05-13T08:43:53.295Z,102495.09
2019-05-13T08:46:43.647Z,102491.75
2019-05-13T08:49:33.053Z,102489.25
2019-05-13T08:52:23.415Z,102498.97
2019-05-13T08:55:16.165Z,102490.28
2019-05-13T08:58:05.425Z,102495.10
2019-05-13T09:00:59.120Z,102483.39
2019-05-13T09:03:48.817Z,102487.83
2019-05-13T09:06:38.955Z,102477.48
2019-05-13T09:09:31.325Z,102482.40
2019-05-13T09:12:32.174Z,102480.09
2019-05-13T09:15:13.492Z,102469.31
2019-05-13T09:18:03.543Z,102469.87
2019-05-13T09:20:53.898Z,102466.52
2019-05-13T09:23:44.043Z,102471.00
2019-05-13T09:26:34.346Z,102471.22
2019-05-13T09:29:24.625Z,102471.34
2019-05-13T09:32:14.555Z,102470.42
2019-05-13T09:35:05.035Z,102470.78
2019-05-13T09:37:54.766Z,102459.91
2019-05-13T09:40:44.772Z,102467.27
2019-05-13T09:43:34.834Z,102457.42
2019-05-13T09:46:24.909Z,102456.87
2019-05-13T09:49:19.750Z,102455.21
2019-05-13T09:52:06.943Z,102450.86
2019-05-13T09:54:57.182Z,102452.31
2019-05-13T09:57:47.248Z,102455.67
2019-05-13T10:00:37.263Z,102451.86
2019-05-13T10:03:29.675Z,102444.78
2019-05-13T10:06:18.958Z,102443.78
2019-05-13T10:09:12.191Z,102440.76
2019-05-13T10:12:03.041Z,102443.85
2019-05-13T10:14:53.020Z,102450.25
2019-05-13T10:17:43.134Z,102444.05
2019-05-13T10:20:57.928Z,102448.42
2019-05-13T10:23:45.751Z,102451.55
2019-05-13T10:26:36.214Z,102450.84
2019-05-13T10:29:26.151Z,102435.77
2019-05-13T10:32:16.463Z,102428.77
2019-05-13T10:35:07.469Z,102439.36
2019-05-13T10:37:58.031Z,102436.83
2019-05-13T10:40:47.811Z,102448.83
2019-05-13T10:43:43.273Z,102434.36
2019-05-13T10:46:32.064Z,102429.22
2019-05-13T10:49:22.339Z,102430.90
2019-05-13T10:52:12.582Z,102431.67
2019-05-13T10:55:02.991Z,102424.41
2019-05-13T10:57:53.849Z,102430.58
2019-05-13T11:00:51.836Z,102429.77
2019-05-13T11:03:42.757Z,102417.28
2019-05-13T11:06:33.055Z,102418.66
2019-05-13T11:09:25.537Z,102414.41
2019-05-13T11:12:15.740Z,102406.64
2019-05-13T11:15:06.296Z,102408.87
2019-05-13T11:17:56.530Z,102412.02
2019-05-13T11:20:46.647Z,102398.81
2019-05-13T11:23:36.411Z,102395.79
2019-05-13T11:26:26.249Z,102404.59
2019-05-13T11:29:16.212Z,102388.30
2019-05-13T11:32:06.793Z,102393.16
2019-05-13T11:34:56.584Z,102390.92
2019-05-13T11:37:46.613Z,102388.93
2019-05-13T11:40:37.413Z,102389.31
2019-05-13T11:43:28.122Z,102391.56
2019-05-13T11:46:21.951Z,102387.16
2019-05-13T11:49:11.772Z,102388.68
2019-05-13T11:52:02.642Z,102388.81
2019-05-13T11:54:54.209Z,102387.09
2019-05-13T11:57:44.612Z,102384.99
2019-05-13T12:00:54.467Z,102373.39
2019-05-13T12:03:44.220Z,102372.16
2019-05-13T12:06:34.058Z,102356.69
2019-05-13T12:09:24.205Z,102355.48
2019-05-13T12:12:14.049Z,102347.38
2019-05-13T12:15:26.507Z,102347.71
2019-05-13T12:17:56.135Z,102347.48
2019-05-13T12:20:46.568Z,102342.48
2019-05-13T12:23:36.636Z,102342.29
2019-05-13T12:26:26.696Z,102347.00
2019-05-13T12:29:19.215Z,102349.38
2019-05-13T12:32:08.186Z,102343.56
2019-05-13T12:34:57.955Z,102344.63
2019-05-13T12:37:48.265Z,102349.16
2019-05-13T12:40:38.509Z,102333.28
2019-05-13T12:43:28.340Z,102321.47
2019-05-13T12:46:18.621Z,102323.85
2019-05-13T12:49:09.145Z,102318.20
2019-05-13T12:52:01.709Z,102313.23
2019-05-13T12:54:52.833Z,102315.78
2019-05-13T12:57:42.814Z,102312.95
2019-05-13T13:00:33.206Z,102311.34
2019-05-13T13:03:24.147Z,102315.97
2019-05-13T13:06:36.600Z,102321.44
2019-05-13T13:09:06.518Z,102311.51
2019-05-13T13:11:56.709Z,102311.56
2019-05-13T13:14:46.849Z,102300.83
2019-05-13T13:17:36.474Z,102290.06
2019-05-13T13:20:26.565Z,102297.41
2019-05-13T13:23:17.840Z,102300.69
2019-05-13T13:26:15.216Z,102292.29
2019-05-13T13:28:59.752Z,102300.28
2019-05-13T13:31:54.038Z,102293.98
2019-05-13T13:34:43.895Z,102285.30
2019-05-13T13:37:35.326Z,102279.97
2019-05-13T13:40:29.541Z,102283.59
2019-05-13T13:43:18.486Z,102273.98
2019-05-13T13:46:25.044Z,102275.25
2019-05-13T13:49:00.620Z,102269.28
2019-05-13T13:51:50.633Z,102266.93
2019-05-13T13:54:44.287Z,102256.66
2019-05-13T13:57:32.604Z,102243.93
2019-05-13T14:00:38.155Z,102252.84
2019-05-13T14:03:15.799Z,102249.02
2019-05-13T14:06:06.541Z,102243.05
2019-05-13T14:08:58.191Z,102244.16
2019-05-13T14:11:47.815Z,102248.59
2019-05-13T14:14:41.250Z,102243.98
2019-05-13T14:17:31.277Z,102250.25
2019-05-13T14:20:22.064Z,102241.56
2019-05-13T14:23:12.614Z,102232.09
2019-05-13T14:26:02.720Z,102229.38
2019-05-13T14:28:53.786Z,102229.98
2019-05-13T14:31:43.771Z,102224.75
2019-05-13T14:34:33.947Z,102227.35
2019-05-13T14:37:24.035Z,102232.50
2019-05-13T14:40:14.538Z,102232.03
2019-05-13T14:43:04.893Z,102232.25
2019-05-13T14:45:55.728Z,102232.88
2019-05-13T14:48:45.615Z,102227.30
2019-05-13T14:51:35.659Z,102221.16
2019-05-13T14:54:25.393Z,102226.09
2019-05-13T14:57:15.571Z,102217.19
2019-05-13T15:00:07.501Z,102211.42
2019-05-13T15:02:57.820Z,102217.02
2019-05-13T15:05:48.908Z,102213.12
2019-05-13T15:08:38.646Z,102207.02
2019-05-13T15:11:28.157Z,102204.11
2019-05-13T15:14:18.207Z,102203.14
2019-05-13T15:17:08.178Z,102205.84
2019-05-13T15:19:58.261Z,102210.13
2019-05-13T15:22:48.695Z,102211.16
2019-05-13T15:25:38.063Z,102216.02
2019-05-13T15:28:27.517Z,102223.92
2019-05-13T15:31:17.464Z,102221.08
2019-05-13T15:34:08.977Z,102221.81
2019-05-13T15:36:58.863Z,102220.08
2019-05-13T15:39:51.663Z,102212.84
2019-05-13T15:42:40.686Z,102216.83
2019-05-13T15:45:31.904Z,102207.81
2019-05-13T15:48:22.218Z,102208.06
2019-05-13T15:51:12.971Z,102212.87
2019-05-13T15:54:04.068Z,102202.72
2019-05-13T15:56:54.813Z,102195.00
2019-05-13T15:59:44.907Z,102194.05
2019-05-13T16:02:35.439Z,102191.70
2019-05-13T16:05:25.664Z,102186.47
2019-05-13T16:08:15.662Z,102185.09
2019-05-13T16:11:05.792Z,102191.84
2019-05-13T16:13:57.347Z,102189.48
2019-05-13T16:16:47.123Z,102185.73
2019-05-13T16:19:36.884Z,102188.83
2019-05-13T16:22:27.012Z,102190.09
2019-05-13T16:25:17.002Z,102185.33
2019-05-13T16:28:07.340Z,102186.40
2019-05-13T16:30:57.417Z,102183.59
2019-05-13T16:33:47.703Z,102182.66
2019-05-13T16:36:39.032Z,102185.78
2019-05-13T16:39:31.338Z,102183.70
2019-05-13T16:42:22.599Z,102183.42
2019-05-13T16:45:13.427Z,102184.52
2019-05-13T16:48:04.169Z,102190.41
2019-05-13T16:50:54.151Z,102185.86
2019-05-13T16:53:44.440Z,102183.82
2019-05-13T16:56:34.460Z,102185.08
2019-05-13T16:59:24.238Z,102189.97
2019-05-13T17:02:14.432Z,102181.80
2019-05-13T17:05:05.335Z,102179.08
2019-05-13T17:07:55.884Z,102180.91
2019-05-13T17:10:45.930Z,102186.52
2019-05-13T17:13:35.990Z,102184.39
2019-05-13T17:16:26.196Z,102179.61
2019-05-13T17:19:16.033Z,102177.88
2019-05-13T17:22:06.350Z,102183.03
2019-05-13T17:24:56.340Z,102181.38
2019-05-13T17:27:46.587Z,102185.16
2019-05-13T17:30:37.066Z,102178.85
2019-05-13T17:33:27.434Z,102175.91
2019-05-13T17:36:18.029Z,102177.48
2019-05-13T17:39:11.783Z,102173.99
2019-05-13T17:42:01.611Z,102173.47
2019-05-13T17:44:52.235Z,102170.29
2019-05-13T17:47:42.338Z,102177.33
2019-05-13T17:50:32.478Z,102168.32
2019-05-13T17:53:22.873Z,102170.89
2019-05-13T17:56:14.032Z,102179.02
2019-05-13T17:59:03.999Z,102180.30
2019-05-13T18:01:54.563Z,102178.77
2019-05-13T18:04:44.403Z,102179.86
2019-05-13T18:07:34.473Z,102180.30
2019-05-13T18:10:24.781Z,102182.51
2019-05-13T18:13:16.046Z,102182.66
2019-05-13T18:16:07.496Z,102188.20
2019-05-13T18:18:58.546Z,102182.51
2019-05-13T18:21:51.512Z,102181.75
2019-05-13T18:24:41.002Z,102180.74
2019-05-13T18:27:32.358Z,102186.53
2019-05-13T18:30:22.829Z,102187.37
2019-05-13T18:33:12.908Z,102176.28
2019-05-13T18:36:02.976Z,102176.64
2019-05-13T18:38:52.823Z,102173.91
2019-05-13T18:41:42.401Z,102174.22
2019-05-13T18:44:32.454Z,102169.27
2019-05-13T18:47:22.199Z,102160.98
2019-05-13T18:50:11.903Z,102169.59
2019-05-13T18:53:01.969Z,102165.16
2019-05-13T18:55:52.718Z,102158.05
2019-05-13T18:58:42.260Z,102160.89
2019-05-13T19:01:32.258Z,102164.02
2019-05-13T19:04:22.353Z,102164.41
2019-05-13T19:07:12.575Z,102170.70
2019-05-13T19:10:02.636Z,102170.59
2019-05-13T19:12:52.962Z,102174.39
2019-05-13T19:15:42.784Z,102175.20
2019-05-13T19:18:32.753Z,102177.43
2019-05-13T19:21:22.824Z,102179.23
2019-05-13T19:24:13.479Z,102179.50
2019-05-13T19:27:07.471Z,102180.97
2019-05-13T19:29:57.250Z,102181.52
2019-05-13T19:32:47.191Z,102185.50
2019-05-13T19:35:36.656Z,102185.52
2019-05-13T19:38:28.343Z,102180.78
2019-05-13T19:41:19.100Z,102176.49
2019-05-13T19:44:09.375Z,102176.05
2019-05-13T19:47:01.899Z,102176.67
2019-05-13T19:49:52.458Z,102177.91
2019-05-13T19:52:42.644Z,102171.73
2019-05-13T19:55:33.892Z,102175.02
2019-05-13T19:58:29.498Z,102176.68
2019-05-13T20:01:15.800Z,102174.86
2019-05-13T20:04:05.962Z,102174.42
2019-05-13T20:06:56.433Z,102176.00
2019-05-13T20:09:46.165Z,102176.58
2019-05-13T20:12:35.989Z,102172.87
2019-05-13T20:15:26.185Z,102173.35
2019-05-13T20:18:16.452Z,102166.08
2019-05-13T20:21:06.511Z,102169.14
2019-05-13T20:23:56.851Z,102168.47
2019-05-13T20:26:46.639Z,102168.81
2019-05-13T20:29:36.498Z,102171.05
2019-05-13T20:32:26.252Z,102174.02
2019-05-13T20:35:15.731Z,102176.05
2019-05-13T20:38:05.523Z,102170.45
2019-05-13T20:40:55.894Z,102169.22
2019-05-13T20:43:45.829Z,102169.57
2019-05-13T20:46:36.598Z,102176.77
2019-05-13T20:49:26.423Z,102170.44
2019-05-13T20:52:16.611Z,102180.51
2019-05-13T20:55:07.102Z,102174.69
2019-05-13T20:57:57.429Z,102176.95
2019-05-13T21:00:46.897Z,101921.25
2019-05-13T21:03:36.564Z,102173.38
2019-05-13T21:06:26.961Z,102177.20
2019-05-13T21:09:17.577Z,102172.02
2019-05-13T21:12:07.701Z,102173.58
2019-05-13T21:14:57.844Z,102172.93
2019-05-13T21:17:48.201Z,102173.44
2019-05-13T21:20:41.005Z,102176.31
2019-05-13T21:23:31.422Z,102174.79
2019-05-13T21:26:22.524Z,102173.09
2019-05-13T21:29:12.073Z,102167.81
2019-05-13T21:32:01.947Z,102175.30
2019-05-13T21:34:51.773Z,102174.28
2019-05-13T21:37:42.396Z,102170.22
2019-05-13T21:40:32.185Z,102167.68
2019-05-13T21:43:21.832Z,102176.01
2019-05-13T21:46:12.150Z,102173.16
2019-05-13T21:49:02.237Z,102174.52
2019-05-13T21:51:52.213Z,102173.67
2019-05-13T21:54:42.343Z,102177.09
2019-05-13T21:57:33.143Z,102183.85
2019-05-13T22:00:27.586Z,102177.09
2019-05-13T22:03:19.173Z,102177.73
2019-05-13T22:06:11.033Z,102180.78
2019-05-13T22:09:00.542Z,102175.67
2019-05-13T22:11:52.318Z,102168.90
2019-05-13T22:14:42.161Z,102160.61
2019-05-13T22:17:32.371Z,102162.91
2019-05-13T22:20:22.910Z,102162.67
2019-05-13T22:23:12.642Z,102164.80
2019-05-13T22:26:02.336Z,102166.09
2019-05-13T22:28:52.397Z,102164.16
2019-05-13T22:31:42.757Z,102163.78
2019-05-13T22:34:32.627Z,102169.64
2019-05-13T22:37:23.625Z,102165.84
2019-05-13T22:40:14.119Z,102169.67
2019-05-13T22:43:07.274Z,102169.59
2019-05-13T22:45:57.028Z,102167.45
2019-05-13T22:48:47.074Z,102167.23
2019-05-13T22:51:37.366Z,102169.67
2019-05-13T22:54:27.177Z,102168.27
2019-05-13T22:57:16.626Z,102169.55
2019-05-13T23:00:08.525Z,102170.83
2019-05-13T23:03:01.607Z,102173.88
2019-05-13T23:05:52.191Z,102172.44
2019-05-13T23:08:42.962Z,102169.73
2019-05-13T23:11:33.015Z,102165.45
2019-05-13T23:14:22.864Z,102171.22
2019-05-13T23:17:13.200Z,102162.57
2019-05-13T23:20:02.887Z,102162.36
2019-05-13T23:22:53.908Z,102155.59
2019-05-13T23:25:44.185Z,102158.30
2019-05-13T23:28:34.492Z,102156.44
2019-05-13T23:31:24.620Z,102153.30
2019-05-13T23:34:14.573Z,102153.00
2019-05-13T23:37:04.845Z,102151.31
2019-05-13T23:39:54.776Z,102149.95
2019-05-13T23:42:44.922Z,102147.12
2019-05-13T23:45:34.592Z,102142.41
2019-05-13T23:48:25.026Z,102144.41
2019-05-13T23:51:14.761Z,102151.39
2019-05-13T23:54:04.659Z,102149.53
2019-05-13T23:56:54.121Z,102153.25
2019-05-13T23:59:43.948Z,102149.73
